createdAt,value
2019-03-29T00:01:54.007Z,20.88
2019-03-29T00:04:23.912Z,19.48
2019-03-29T00:06:53.812Z,19.87
2019-03-29T00:09:23.742Z,19.12
2019-03-29T00:11:53.602Z,18.32
2019-03-29T00:14:23.745Z,20.30
2019-03-29T00:16:53.584Z,17.70
2019-03-29T00:19:23.512Z,19.32
2019-03-29T00:21:53.671Z,19.95
2019-03-29T00:24:23.610Z,19.25
2019-03-29T00:26:53.481Z,18.45
2019-03-29T00:29:23.407Z,17.57
2019-03-29T00:31:53.315Z,19.12
2019-03-29T00:34:23.224Z,19.05
2019-03-29T00:36:53.078Z,19.23
2019-03-29T00:39:23.807Z,20.00
2019-03-29T00:41:56.197Z,20.80
2019-03-29T00:44:30.292Z,18.42
2019-03-29T00:47:00.249Z,19.07
2019-03-29T00:49:34.968Z,19.62
2019-03-29T00:52:07.611Z,19.62
2019-03-29T00:54:49.778Z,20.82
2019-03-29T00:57:25.473Z,19.23
2019-03-29T01:00:09.005Z,19.32
2019-03-29T01:02:41.915Z,21.02
2019-03-29T01:05:21.798Z,20.68
2019-03-29T01:08:07.725Z,20.90
2019-03-29T01:10:28.890Z,19.90
2019-03-29T01:12:59.015Z,21.45
2019-03-29T01:15:29.171Z,21.00
2019-03-29T01:17:59.046Z,21.93
2019-03-29T01:20:29.073Z,20.12
2019-03-29T01:22:58.941Z,21.62
2019-03-29T01:25:29.436Z,20.80
2019-03-29T01:27:59.724Z,21.68
2019-03-29T01:30:29.970Z,22.02
2019-03-29T01:33:01.398Z,22.73
2019-03-29T01:35:30.740Z,21.70
2019-03-29T01:38:00.603Z,21.90
2019-03-29T01:40:30.488Z,20.72
2019-03-29T01:43:00.380Z,20.65
2019-03-29T01:45:31.230Z,21.10
2019-03-29T01:48:00.887Z,21.48
2019-03-29T01:50:30.755Z,21.50
2019-03-29T01:53:00.637Z,22.15
2019-03-29T01:55:30.538Z,23.85
2019-03-29T01:58:00.548Z,25.30
2019-03-29T02:00:32.035Z,23.90
2019-03-29T02:03:01.323Z,25.17
2019-03-29T02:05:31.219Z,28.02
2019-03-29T02:08:02.134Z,27.02
2019-03-29T02:10:31.998Z,24.05
2019-03-29T02:13:01.922Z,23.80
2019-03-29T02:15:32.144Z,23.60
2019-03-29T02:18:02.066Z,24.30
2019-03-29T02:20:31.963Z,22.87
2019-03-29T02:23:01.807Z,22.77
2019-03-29T02:25:31.722Z,24.00
2019-03-29T02:28:01.638Z,23.67
2019-03-29T02:30:32.308Z,24.82
2019-03-29T02:33:02.609Z,24.30
2019-03-29T02:35:35.019Z,24.18
2019-03-29T02:38:15.030Z,25.12
2019-03-29T02:40:45.756Z,25.45
2019-03-29T02:43:16.371Z,25.72
2019-03-29T02:45:46.225Z,26.07
2019-03-29T02:48:17.034Z,25.02
2019-03-29T02:50:47.013Z,25.52
2019-03-29T02:53:16.932Z,26.55
2019-03-29T02:55:46.814Z,26.17
2019-03-29T02:58:16.779Z,25.80
2019-03-29T03:00:48.031Z,27.13
2019-03-29T03:03:18.269Z,26.60
2019-03-29T03:05:48.108Z,25.70
2019-03-29T03:08:18.019Z,24.82
2019-03-29T03:10:47.895Z,24.15
2019-03-29T03:13:17.767Z,25.37
2019-03-29T03:15:48.368Z,25.45
2019-03-29T03:18:18.223Z,24.52
2019-03-29T03:20:48.098Z,23.40
2019-03-29T03:23:18.031Z,24.70
2019-03-29T03:25:47.909Z,26.35
2019-03-29T03:28:17.788Z,25.12
2019-03-29T03:30:47.687Z,26.90
2019-03-29T03:33:18.504Z,25.55
2019-03-29T03:35:49.403Z,24.25
2019-03-29T03:38:19.334Z,23.18
2019-03-29T03:40:52.604Z,24.20
2019-03-29T03:43:22.465Z,23.98
2019-03-29T03:45:52.401Z,23.57
2019-03-29T03:48:22.269Z,24.45
2019-03-29T03:50:52.126Z,23.35
2019-03-29T03:53:22.767Z,24.82
2019-03-29T03:55:52.625Z,23.52
2019-03-29T03:58:22.637Z,24.20
2019-03-29T04:00:52.871Z,23.40
2019-03-29T04:03:22.737Z,24.98
2019-03-29T04:05:52.604Z,23.35
2019-03-29T04:08:22.537Z,23.65
2019-03-29T04:10:52.415Z,24.32
2019-03-29T04:13:22.272Z,22.15
2019-03-29T04:15:53.094Z,24.50
2019-03-29T04:18:24.020Z,22.30
2019-03-29T04:20:53.635Z,24.07
2019-03-29T04:23:23.540Z,26.05
2019-03-29T04:25:53.430Z,26.35
2019-03-29T04:28:23.301Z,26.15
2019-03-29T04:30:53.224Z,27.80
2019-03-29T04:33:23.177Z,27.10
2019-03-29T04:35:53.973Z,26.50
2019-03-29T04:38:23.647Z,19.32
2019-03-29T04:40:53.525Z,23.83
2019-03-29T04:43:23.391Z,23.10
2019-03-29T04:45:53.320Z,25.02
2019-03-29T04:48:23.191Z,23.35
2019-03-29T04:50:53.146Z,24.65
2019-03-29T04:53:23.066Z,23.92
2019-03-29T04:55:52.944Z,25.17
2019-03-29T04:58:23.534Z,24.50
2019-03-29T05:00:53.557Z,23.75
2019-03-29T05:03:23.452Z,22.37
2019-03-29T05:05:53.496Z,22.22
2019-03-29T05:08:23.876Z,23.87
2019-03-29T05:10:53.728Z,21.23
2019-03-29T05:13:23.608Z,20.80
2019-03-29T05:15:53.545Z,23.92
2019-03-29T05:18:23.410Z,23.45
2019-03-29T05:20:53.282Z,28.02
2019-03-29T05:23:23.196Z,23.67
2019-03-29T05:25:53.087Z,24.82
2019-03-29T05:28:23.660Z,25.50
2019-03-29T05:30:53.582Z,25.72
2019-03-29T05:33:23.440Z,26.10
2019-03-29T05:35:53.299Z,26.42
2019-03-29T05:38:23.214Z,27.40
2019-03-29T05:40:53.086Z,26.35
2019-03-29T05:43:22.997Z,32.15
2019-03-29T05:45:52.959Z,25.72
2019-03-29T05:48:22.854Z,26.80
2019-03-29T05:50:52.733Z,24.07
2019-03-29T05:53:22.646Z,25.72
2019-03-29T05:55:52.522Z,26.12
2019-03-29T05:58:23.016Z,25.57
2019-03-29T06:00:53.174Z,23.20
2019-03-29T06:03:23.073Z,24.67
2019-03-29T06:05:53.082Z,25.92
2019-03-29T06:08:22.972Z,24.07
2019-03-29T06:10:54.132Z,23.80
2019-03-29T06:13:32.327Z,23.42
2019-03-29T06:16:02.240Z,21.80
2019-03-29T06:18:32.195Z,22.87
2019-03-29T06:21:02.286Z,21.33
2019-03-29T06:23:32.206Z,20.62
2019-03-29T06:26:02.549Z,22.17
2019-03-29T06:28:33.875Z,22.75
2019-03-29T06:31:03.511Z,22.58
2019-03-29T06:33:34.029Z,23.38
2019-03-29T06:36:04.198Z,20.10
2019-03-29T06:38:34.293Z,22.95
2019-03-29T06:41:04.230Z,24.43
2019-03-29T06:43:35.051Z,22.05
2019-03-29T06:46:05.991Z,23.07
2019-03-29T06:48:35.891Z,22.95
2019-03-29T06:51:05.902Z,20.30
2019-03-29T06:53:35.809Z,22.42
2019-03-29T06:56:05.692Z,20.82
2019-03-29T06:58:35.598Z,20.17
2019-03-29T07:01:06.137Z,20.55
2019-03-29T07:03:36.007Z,19.85
2019-03-29T07:06:07.728Z,24.00
2019-03-29T07:08:37.614Z,22.67
2019-03-29T07:11:17.207Z,20.90
2019-03-29T07:16:08.563Z,17.02
2019-03-29T07:18:38.419Z,18.98
2019-03-29T07:21:20.829Z,17.23
2019-03-29T07:26:07.823Z,17.30
2019-03-29T07:28:38.415Z,18.75
2019-03-29T07:31:08.751Z,17.70
2019-03-29T07:33:38.703Z,18.02
2019-03-29T07:36:08.602Z,15.38
2019-03-29T07:38:38.625Z,16.07
2019-03-29T07:41:08.537Z,17.07
2019-03-29T07:43:38.424Z,17.32
2019-03-29T07:46:08.360Z,16.77
2019-03-29T07:48:40.397Z,18.70
2019-03-29T07:53:37.826Z,14.53
2019-03-29T07:56:07.713Z,19.32
2019-03-29T07:58:51.060Z,21.70
2019-03-29T08:01:20.985Z,13.68
2019-03-29T08:03:51.408Z,21.07
2019-03-29T08:06:21.560Z,16.37
2019-03-29T08:08:51.761Z,15.43
2019-03-29T08:11:26.237Z,12.82
2019-03-29T08:13:53.639Z,11.48
2019-03-29T08:16:23.592Z,11.85
2019-03-29T08:18:53.822Z,14.85
2019-03-29T08:21:23.832Z,12.07
2019-03-29T08:23:53.715Z,11.80
2019-03-29T08:26:23.688Z,12.25
2019-03-29T08:28:53.567Z,11.55
2019-03-29T08:31:23.570Z,12.50
2019-03-29T08:33:55.014Z,10.82
2019-03-29T08:36:24.370Z,11.68
2019-03-29T08:38:54.278Z,10.48
2019-03-29T08:41:24.167Z,10.15
2019-03-29T08:43:54.068Z,9.63
2019-03-29T08:46:23.974Z,10.32
2019-03-29T08:48:53.908Z,10.28
2019-03-29T08:51:23.782Z,10.20
2019-03-29T08:53:53.719Z,10.32
2019-03-29T08:56:23.586Z,10.45
2019-03-29T08:58:53.562Z,10.78
2019-03-29T09:01:23.442Z,8.80
2019-03-29T09:04:04.855Z,14.35
2019-03-29T09:06:25.038Z,12.45
2019-03-29T09:08:55.013Z,11.18
2019-03-29T09:11:24.908Z,10.82
2019-03-29T09:13:55.123Z,13.75
2019-03-29T09:16:24.992Z,11.10
2019-03-29T09:18:57.488Z,9.58
2019-03-29T09:21:27.352Z,9.50
2019-03-29T09:23:57.311Z,10.38
2019-03-29T09:26:27.164Z,9.20
2019-03-29T09:28:57.092Z,8.73
2019-03-29T09:31:26.956Z,9.03
2019-03-29T09:33:58.605Z,8.98
2019-03-29T09:38:56.396Z,8.50
2019-03-29T09:41:26.298Z,8.28
2019-03-29T09:43:56.223Z,8.48
2019-03-29T09:46:26.111Z,9.55
2019-03-29T09:48:56.027Z,9.03
2019-03-29T09:51:25.927Z,11.08
2019-03-29T09:53:57.897Z,9.20
2019-03-29T09:58:56.953Z,9.45
2019-03-29T10:01:26.882Z,8.60
2019-03-29T10:03:57.298Z,8.43
2019-03-29T10:06:27.201Z,6.80
2019-03-29T10:08:57.132Z,7.62
2019-03-29T10:11:27.007Z,8.50
2019-03-29T10:13:56.943Z,8.30
2019-03-29T10:16:26.862Z,24.67
2019-03-29T10:18:57.361Z,7.28
2019-03-29T10:21:27.289Z,7.28
2019-03-29T10:23:57.268Z,7.40
2019-03-29T10:26:27.174Z,12.25
2019-03-29T10:28:57.130Z,7.10
2019-03-29T10:31:32.539Z,6.00
2019-03-29T10:33:57.969Z,6.35
2019-03-29T10:36:27.880Z,8.85
2019-03-29T10:38:58.249Z,11.20
2019-03-29T10:41:28.145Z,7.45
2019-03-29T10:43:58.162Z,9.40
2019-03-29T10:46:28.556Z,9.93
2019-03-29T10:48:58.503Z,6.35
2019-03-29T10:51:28.514Z,16.87
2019-03-29T10:53:58.453Z,6.80
2019-03-29T10:56:34.433Z,5.90
2019-03-29T11:01:27.841Z,5.33
2019-03-29T11:03:57.692Z,4.97
2019-03-29T11:06:27.759Z,5.00
2019-03-29T11:08:57.610Z,5.47
2019-03-29T11:11:27.510Z,5.80
2019-03-29T11:13:57.401Z,9.68
2019-03-29T11:16:27.326Z,11.50
2019-03-29T11:18:57.208Z,13.85
2019-03-29T11:21:27.169Z,5.60
2019-03-29T11:23:57.076Z,22.05
2019-03-29T11:26:27.720Z,5.60
2019-03-29T11:28:57.604Z,5.87
2019-03-29T11:31:27.507Z,4.95
2019-03-29T11:33:58.731Z,4.60
2019-03-29T11:36:29.655Z,14.80
2019-03-29T11:38:59.623Z,5.42
2019-03-29T11:41:29.574Z,11.75
2019-03-29T11:43:59.465Z,6.55
2019-03-29T11:46:29.372Z,7.03
2019-03-29T11:48:59.300Z,6.20
2019-03-29T11:51:29.314Z,5.30
2019-03-29T11:53:59.302Z,5.90
2019-03-29T11:56:29.191Z,6.42
2019-03-29T11:58:59.550Z,5.75
2019-03-29T12:01:29.485Z,5.72
2019-03-29T12:03:59.350Z,5.20
2019-03-29T12:06:29.262Z,5.42
2019-03-29T12:08:59.483Z,4.70
2019-03-29T12:11:29.431Z,6.12
2019-03-29T12:14:00.034Z,5.20
2019-03-29T12:16:29.926Z,4.05
2019-03-29T12:18:59.868Z,4.42
2019-03-29T12:21:29.699Z,4.47
2019-03-29T12:23:59.599Z,5.80
2019-03-29T12:26:29.579Z,5.95
2019-03-29T12:28:59.465Z,5.80
2019-03-29T12:31:29.380Z,7.35
2019-03-29T12:33:59.347Z,6.53
2019-03-29T12:36:29.226Z,5.50
2019-03-29T12:38:59.935Z,14.07
2019-03-29T12:41:30.924Z,23.42
2019-03-29T12:44:00.555Z,16.90
2019-03-29T12:46:32.398Z,11.73
2019-03-29T12:49:02.599Z,5.00
2019-03-29T12:51:32.461Z,6.40
2019-03-29T12:54:02.371Z,7.20
2019-03-29T12:56:33.301Z,6.50
2019-03-29T12:59:02.915Z,4.47
2019-03-29T13:01:39.352Z,6.47
2019-03-29T13:06:32.360Z,5.67
2019-03-29T13:09:02.419Z,6.17
2019-03-29T13:11:33.597Z,7.15
2019-03-29T13:14:10.266Z,6.10
2019-03-29T13:19:03.128Z,6.17
2019-03-29T13:21:33.030Z,6.05
2019-03-29T13:24:02.975Z,6.40
2019-03-29T13:26:33.568Z,6.30
2019-03-29T13:29:03.472Z,6.78
2019-03-29T13:31:35.210Z,7.62
2019-03-29T13:36:33.827Z,7.05
2019-03-29T13:39:06.275Z,5.97
2019-03-29T13:41:36.201Z,8.33
2019-03-29T13:44:06.439Z,9.33
2019-03-29T13:46:36.352Z,9.98
2019-03-29T13:49:06.250Z,7.30
2019-03-29T13:51:36.233Z,11.43
2019-03-29T13:54:06.136Z,9.05
2019-03-29T13:56:36.089Z,15.48
2019-03-29T13:59:06.010Z,12.28
2019-03-29T14:01:35.970Z,6.97
2019-03-29T14:04:05.887Z,6.25
2019-03-29T14:06:35.819Z,9.58
2019-03-29T14:09:06.505Z,5.67
2019-03-29T14:11:35.898Z,6.30
2019-03-29T14:14:05.806Z,8.08
2019-03-29T14:16:35.792Z,7.80
2019-03-29T14:19:05.660Z,7.15
2019-03-29T14:21:35.596Z,7.67
2019-03-29T14:24:07.486Z,7.50
2019-03-29T14:26:37.411Z,6.95
2019-03-29T14:29:07.316Z,8.63
2019-03-29T14:31:37.249Z,15.40
2019-03-29T14:34:07.095Z,5.85
2019-03-29T14:36:37.007Z,6.87
2019-03-29T14:39:07.257Z,11.60
2019-03-29T14:41:37.240Z,9.73
2019-03-29T14:44:07.138Z,14.90
2019-03-29T14:46:37.725Z,9.48
2019-03-29T14:49:07.582Z,9.30
2019-03-29T14:51:37.495Z,13.13
2019-03-29T14:54:07.791Z,10.68
2019-03-29T14:56:37.724Z,8.53
2019-03-29T14:59:07.594Z,9.05
2019-03-29T15:01:37.560Z,8.05
2019-03-29T15:04:07.406Z,10.82
2019-03-29T15:06:37.381Z,8.98
2019-03-29T15:09:07.693Z,9.00
2019-03-29T15:11:37.621Z,7.78
2019-03-29T15:14:13.292Z,7.50
2019-03-29T15:16:42.928Z,8.20
2019-03-29T15:19:12.826Z,8.30
2019-03-29T15:21:43.163Z,10.23
2019-03-29T15:24:13.049Z,9.50
2019-03-29T15:26:43.716Z,9.80
2019-03-29T15:29:13.597Z,8.58
2019-03-29T15:31:43.540Z,9.10
2019-03-29T15:34:13.434Z,9.88
2019-03-29T15:36:44.266Z,12.73
2019-03-29T15:39:14.150Z,9.58
2019-03-29T15:41:44.459Z,9.18
2019-03-29T15:44:14.383Z,12.05
2019-03-29T15:47:07.242Z,11.55
2019-03-29T15:49:37.144Z,15.03
2019-03-29T15:52:07.117Z,16.82
2019-03-29T15:54:37.028Z,13.53
2019-03-29T15:57:07.002Z,15.72
2019-03-29T15:59:42.748Z,13.28
2019-03-29T16:02:12.693Z,15.32
2019-03-29T16:04:42.992Z,12.45
2019-03-29T16:07:15.205Z,13.43
2019-03-29T16:09:47.015Z,16.95
2019-03-29T16:12:16.968Z,13.98
2019-03-29T16:14:46.869Z,15.98
2019-03-29T16:17:16.809Z,14.25
2019-03-29T16:19:46.705Z,15.65
2019-03-29T16:22:23.762Z,16.02
2019-03-29T16:24:54.654Z,17.32
2019-03-29T16:27:25.246Z,21.07
2019-03-29T16:29:55.117Z,16.62
2019-03-29T16:32:25.089Z,16.52
2019-03-29T16:34:55.013Z,24.32
2019-03-29T16:37:25.211Z,20.05
2019-03-29T16:39:56.170Z,15.03
2019-03-29T16:42:25.918Z,25.40
2019-03-29T16:44:55.826Z,17.40
2019-03-29T16:47:25.783Z,21.73
2019-03-29T16:49:55.699Z,17.15
2019-03-29T16:52:34.681Z,23.18
2019-03-29T16:55:13.205Z,21.12
2019-03-29T16:57:39.392Z,23.57
2019-03-29T17:02:38.641Z,21.37
2019-03-29T17:05:08.617Z,23.50
2019-03-29T17:07:38.940Z,27.22
2019-03-29T17:10:10.875Z,26.68
2019-03-29T17:12:40.797Z,19.10
2019-03-29T17:15:10.677Z,24.55
2019-03-29T17:17:41.400Z,25.40
2019-03-29T17:20:11.251Z,33.10
2019-03-29T17:22:43.260Z,30.37
2019-03-29T17:27:41.529Z,29.42
2019-03-29T17:30:13.191Z,25.43
2019-03-29T17:32:43.046Z,21.85
2019-03-29T17:35:12.933Z,24.35
2019-03-29T17:37:42.819Z,22.82
2019-03-29T17:40:12.676Z,21.65
2019-03-29T17:42:42.643Z,19.50
2019-03-29T17:45:12.503Z,23.25
2019-03-29T17:47:42.429Z,31.82
2019-03-29T17:50:12.288Z,29.10
2019-03-29T17:52:42.804Z,24.98
2019-03-29T17:55:12.684Z,23.83
2019-03-29T17:57:42.612Z,27.45
2019-03-29T18:00:14.034Z,34.67
2019-03-29T18:02:58.627Z,18.20
2019-03-29T18:05:28.476Z,31.27
2019-03-29T18:07:58.374Z,22.70
2019-03-29T18:10:29.948Z,30.35
2019-03-29T18:15:30.528Z,25.77
2019-03-29T18:18:00.449Z,30.50
2019-03-29T18:20:33.053Z,31.35
2019-03-29T18:23:02.976Z,27.95
2019-03-29T18:25:32.873Z,29.07
2019-03-29T18:28:02.787Z,29.67
2019-03-29T18:30:38.178Z,22.07
2019-03-29T18:33:13.604Z,35.33
2019-03-29T18:35:43.432Z,24.52
2019-03-29T18:38:13.405Z,27.00
2019-03-29T18:40:43.615Z,25.17
2019-03-29T18:43:13.516Z,26.15
2019-03-29T18:45:43.083Z,23.77
2019-03-29T18:48:12.979Z,18.35
2019-03-29T18:50:42.869Z,19.67
2019-03-29T18:53:12.752Z,19.95
2019-03-29T18:55:42.682Z,21.70
2019-03-29T18:58:12.552Z,42.70
2019-03-29T19:00:43.786Z,54.08
2019-03-29T19:03:14.339Z,19.07
2019-03-29T19:05:43.972Z,20.35
2019-03-29T19:08:13.878Z,19.05
2019-03-29T19:10:43.901Z,21.37
2019-03-29T19:13:15.727Z,19.17
2019-03-29T19:15:45.669Z,19.15
2019-03-29T19:18:15.633Z,18.20
2019-03-29T19:20:47.447Z,27.37
2019-03-29T19:23:17.500Z,23.10
2019-03-29T19:25:47.628Z,26.33
2019-03-29T21:05:21.618Z,22.67
2019-03-29T21:08:59.828Z,29.07
2019-03-29T21:11:27.156Z,22.32
2019-03-29T21:13:54.655Z,23.70
2019-03-29T21:16:21.867Z,25.90
2019-03-29T21:18:49.432Z,26.30
2019-03-29T21:21:16.699Z,24.05
2019-03-29T21:23:47.104Z,24.77
2019-03-29T21:26:13.099Z,25.02
2019-03-29T21:28:40.459Z,30.65
2019-03-29T21:31:07.725Z,26.40
2019-03-29T21:33:35.438Z,27.65
2019-03-29T21:36:03.078Z,24.30
2019-03-29T21:38:30.747Z,25.68
2019-03-29T21:40:58.014Z,22.07
2019-03-29T21:43:25.416Z,27.10
2019-03-29T21:45:53.693Z,26.37
2019-03-29T21:48:28.508Z,24.52
2019-03-29T21:50:51.269Z,23.57
2019-03-29T21:53:18.472Z,26.23
2019-03-29T21:55:45.887Z,22.95
2019-03-29T21:58:13.224Z,21.77
2019-03-29T22:00:40.569Z,18.10
2019-03-29T22:03:07.892Z,19.15
2019-03-29T22:05:35.584Z,17.35
2019-03-29T22:08:02.822Z,15.85
2019-03-29T22:10:31.309Z,17.35
2019-03-29T22:12:58.614Z,16.05
2019-03-29T22:15:25.827Z,18.50
2019-03-29T22:17:56.033Z,16.70
2019-03-29T22:20:23.559Z,14.25
2019-03-29T22:22:51.765Z,15.88
2019-03-29T22:25:19.240Z,14.15
2019-03-29T22:27:47.465Z,15.43
2019-03-29T22:30:15.287Z,15.05
2019-03-29T22:32:42.896Z,12.90
2019-03-29T22:35:10.589Z,13.65
2019-03-29T22:37:38.234Z,12.47
2019-03-29T22:40:06.222Z,12.95
2019-03-29T22:42:33.639Z,13.58
2019-03-29T22:45:01.869Z,13.78
2019-03-29T22:47:29.126Z,17.70
2019-03-29T22:49:56.333Z,15.38
2019-03-29T22:52:23.558Z,15.18
2019-03-29T22:54:50.857Z,15.15
2019-03-29T22:57:18.055Z,15.10
2019-03-29T22:59:45.286Z,14.40
2019-03-29T23:02:12.547Z,15.32
2019-03-29T23:04:39.766Z,15.15
2019-03-29T23:07:07.201Z,13.25
2019-03-29T23:09:34.470Z,14.00
2019-03-29T23:12:01.683Z,14.45
2019-03-29T23:14:29.105Z,13.20
2019-03-29T23:16:56.783Z,13.35
2019-03-29T23:19:24.964Z,13.38
2019-03-29T23:21:52.181Z,13.95
2019-03-29T23:24:21.282Z,13.20
2019-03-29T23:26:48.479Z,13.18
2019-03-29T23:29:15.782Z,13.20
2019-03-29T23:31:43.400Z,13.08
2019-03-29T23:34:10.655Z,13.20
2019-03-29T23:36:38.005Z,13.58
2019-03-29T23:39:05.318Z,13.75
2019-03-29T23:41:33.650Z,12.95
2019-03-29T23:44:02.730Z,13.68
2019-03-29T23:46:30.244Z,12.68
2019-03-29T23:48:57.447Z,12.93
2019-03-29T23:51:24.654Z,12.33
2019-03-29T23:53:51.940Z,13.05
2019-03-29T23:56:20.250Z,13.78
2019-03-29T23:58:47.462Z,12.55
